Lanier, Texas
Current Conditions -  °F | °C
As of 11:55 PM on Friday 19 Dec 2014 (Local Time) from KASL Reporting Station
Overcast Overcast  
Wind Chill: 48°   Ceiling: 600
Heat Index: 48°   Visibility: 7mi
Dew Point: 46°   Wind: 0mph
Humidity: 90%   Direction: NA
Pressure: 30.22"   Gusts: NA
Location:  33.0065°N, 94.3775°W
Report Text: KASL 200555Z AUTO 00000KT 7SM OVC006 09/08 A3022 RMK AO1 T00900075 10097 20090 401050090
Loading
Personal Weather Stations






























Interactive Weather Map New forecast layout! Learn more

10-Day Weather Forecast

Advertisements
Track Severe Weather on mobile